sensor_id;sensor_type;location;lat;lon;timestamp;P1;durP1;ratioP1;P2;durP2;ratioP2
22144;SDS011;11238;48.730;11.566;2022-11-02T00:00:59;7.30;;;4.80;;
22144;SDS011;11238;48.730;11.566;2022-11-02T00:03:38;7.82;;;4.45;;
22144;SDS011;11238;48.730;11.566;2022-11-02T00:06:03;11.13;;;5.10;;
22144;SDS011;11238;48.730;11.566;2022-11-02T00:08:29;6.65;;;4.75;;
22144;SDS011;11238;48.730;11.566;2022-11-02T00:10:55;7.30;;;4.65;;
22144;SDS011;11238;48.730;11.566;2022-11-02T00:13:21;8.18;;;4.82;;
22144;SDS011;11238;48.730;11.566;2022-11-02T00:15:46;8.40;;;4.85;;
22144;SDS011;11238;48.730;11.566;2022-11-02T00:18:12;4.45;;;4.00;;
22144;SDS011;11238;48.730;11.566;2022-11-02T00:20:39;8.45;;;4.50;;
22144;SDS011;11238;48.730;11.566;2022-11-02T00:23:07;5.78;;;4.40;;
22144;SDS011;11238;48.730;11.566;2022-11-02T00:25:37;6.43;;;4.68;;
22144;SDS011;11238;48.730;11.566;2022-11-02T00:28:06;5.78;;;4.05;;
22144;SDS011;11238;48.730;11.566;2022-11-02T00:30:32;7.80;;;4.60;;
22144;SDS011;11238;48.730;11.566;2022-11-02T00:32:58;7.60;;;4.53;;
22144;SDS011;11238;48.730;11.566;2022-11-02T00:35:24;9.48;;;3.97;;
22144;SDS011;11238;48.730;11.566;2022-11-02T00:37:50;5.65;;;3.95;;
22144;SDS011;11238;48.730;11.566;2022-11-02T00:40:17;6.63;;;3.50;;
22144;SDS011;11238;48.730;11.566;2022-11-02T00:42:42;3.65;;;3.08;;
22144;SDS011;11238;48.730;11.566;2022-11-02T00:45:10;5.30;;;3.53;;
22144;SDS011;11238;48.730;11.566;2022-11-02T00:47:36;5.32;;;3.10;;
22144;SDS011;11238;48.730;11.566;2022-11-02T00:50:02;31.85;;;5.13;;
22144;SDS011;11238;48.730;11.566;2022-11-02T00:52:29;6.35;;;4.15;;
22144;SDS011;11238;48.730;11.566;2022-11-02T00:54:56;5.90;;;4.30;;
22144;SDS011;11238;48.730;11.566;2022-11-02T00:57:22;7.15;;;3.47;;
22144;SDS011;11238;48.730;11.566;2022-11-02T00:59:48;4.82;;;3.33;;
22144;SDS011;11238;48.730;11.566;2022-11-02T01:02:15;23.85;;;3.92;;
22144;SDS011;11238;48.730;11.566;2022-11-02T01:04:41;3.75;;;3.08;;
22144;SDS011;11238;48.730;11.566;2022-11-02T01:07:07;6.00;;;3.20;;
22144;SDS011;11238;48.730;11.566;2022-11-02T01:09:34;3.58;;;2.97;;
22144;SDS011;11238;48.730;11.566;2022-11-02T01:12:00;6.30;;;2.70;;
22144;SDS011;11238;48.730;11.566;2022-11-02T01:14:26;6.68;;;3.10;;
22144;SDS011;11238;48.730;11.566;2022-11-02T01:16:52;3.70;;;3.10;;
22144;SDS011;11238;48.730;11.566;2022-11-02T01:19:20;5.40;;;3.08;;
22144;SDS011;11238;48.730;11.566;2022-11-02T01:21:45;5.00;;;3.30;;
22144;SDS011;11238;48.730;11.566;2022-11-02T01:24:11;3.17;;;2.45;;
22144;SDS011;11238;48.730;11.566;2022-11-02T01:26:37;3.65;;;2.40;;
22144;SDS011;11238;48.730;11.566;2022-11-02T01:29:03;2.42;;;1.98;;
22144;SDS011;11238;48.730;11.566;2022-11-02T01:31:28;3.50;;;2.50;;
22144;SDS011;11238;48.730;11.566;2022-11-02T01:33:54;2.58;;;2.15;;
22144;SDS011;11238;48.730;11.566;2022-11-02T01:36:20;2.97;;;2.33;;
22144;SDS011;11238;48.730;11.566;2022-11-02T01:38:47;6.57;;;2.60;;
22144;SDS011;11238;48.730;11.566;2022-11-02T01:41:14;3.60;;;2.80;;
22144;SDS011;11238;48.730;11.566;2022-11-02T01:43:41;6.22;;;3.30;;
22144;SDS011;11238;48.730;11.566;2022-11-02T01:48:42;6.80;;;2.85;;
22144;SDS011;11238;48.730;11.566;2022-11-02T01:51:30;8.32;;;2.85;;
22144;SDS011;11238;48.730;11.566;2022-11-02T01:54:11;5.07;;;3.10;;
22144;SDS011;11238;48.730;11.566;2022-11-02T01:56:45;4.45;;;2.92;;
22144;SDS011;11238;48.730;11.566;2022-11-02T01:59:17;3.67;;;2.75;;
22144;SDS011;11238;48.730;11.566;2022-11-02T02:01:48;4.07;;;2.65;;
22144;SDS011;11238;48.730;11.566;2022-11-02T02:04:14;2.83;;;2.25;;
22144;SDS011;11238;48.730;11.566;2022-11-02T02:06:41;2.75;;;2.45;;
22144;SDS011;11238;48.730;11.566;2022-11-02T02:09:08;3.13;;;2.50;;
22144;SDS011;11238;48.730;11.566;2022-11-02T02:11:36;8.93;;;3.55;;
22144;SDS011;11238;48.730;11.566;2022-11-02T02:14:04;5.05;;;3.83;;
22144;SDS011;11238;48.730;11.566;2022-11-02T02:19:35;3.78;;;2.88;;
22144;SDS011;11238;48.730;11.566;2022-11-02T02:27:29;5.22;;;4.30;;
22144;SDS011;11238;48.730;11.566;2022-11-02T02:30:16;6.35;;;4.15;;
22144;SDS011;11238;48.730;11.566;2022-11-02T02:32:48;6.75;;;4.10;;
22144;SDS011;11238;48.730;11.566;2022-11-02T02:35:25;8.40;;;4.10;;
22144;SDS011;11238;48.730;11.566;2022-11-02T02:38:00;8.20;;;4.13;;
22144;SDS011;11238;48.730;11.566;2022-11-02T02:45:35;6.53;;;4.47;;
22144;SDS011;11238;48.730;11.566;2022-11-02T02:48:16;8.50;;;4.32;;
22144;SDS011;11238;48.730;11.566;2022-11-02T02:51:18;8.55;;;4.03;;
22144;SDS011;11238;48.730;11.566;2022-11-02T02:53:42;9.98;;;4.53;;
22144;SDS011;11238;48.730;11.566;2022-11-02T02:56:14;7.55;;;4.30;;
22144;SDS011;11238;48.730;11.566;2022-11-02T02:58:46;6.65;;;4.38;;
22144;SDS011;11238;48.730;11.566;2022-11-02T03:01:16;10.73;;;4.30;;
22144;SDS011;11238;48.730;11.566;2022-11-02T03:03:44;6.90;;;4.30;;
22144;SDS011;11238;48.730;11.566;2022-11-02T03:06:16;10.38;;;5.15;;
22144;SDS011;11238;48.730;11.566;2022-11-02T03:09:15;13.18;;;4.75;;
22144;SDS011;11238;48.730;11.566;2022-11-02T03:18:01;8.00;;;4.45;;
22144;SDS011;11238;48.730;11.566;2022-11-02T03:26:32;7.97;;;4.68;;
22144;SDS011;11238;48.730;11.566;2022-11-02T03:30:21;10.50;;;5.13;;
22144;SDS011;11238;48.730;11.566;2022-11-02T03:32:32;8.68;;;4.47;;
22144;SDS011;11238;48.730;11.566;2022-11-02T03:35:07;9.40;;;5.60;;
22144;SDS011;11238;48.730;11.566;2022-11-02T03:37:54;9.75;;;4.95;;
22144;SDS011;11238;48.730;11.566;2022-11-02T03:40:28;9.07;;;5.45;;
22144;SDS011;11238;48.730;11.566;2022-11-02T03:45:29;12.90;;;8.98;;
22144;SDS011;11238;48.730;11.566;2022-11-02T03:48:05;29.60;;;11.45;;
22144;SDS011;11238;48.730;11.566;2022-11-02T03:50:33;29.58;;;13.07;;
22144;SDS011;11238;48.730;11.566;2022-11-02T03:53:08;20.83;;;12.65;;
22144;SDS011;11238;48.730;11.566;2022-11-02T03:55:41;91.60;;;13.45;;
22144;SDS011;11238;48.730;11.566;2022-11-02T03:58:12;44.63;;;13.75;;
22144;SDS011;11238;48.730;11.566;2022-11-02T04:00:49;59.28;;;14.70;;
22144;SDS011;11238;48.730;11.566;2022-11-02T04:03:18;43.17;;;13.30;;
22144;SDS011;11238;48.730;11.566;2022-11-02T04:05:46;92.25;;;14.05;;
22144;SDS011;11238;48.730;11.566;2022-11-02T04:08:31;150.35;;;14.48;;
22144;SDS011;11238;48.730;11.566;2022-11-02T04:11:04;21.52;;;11.73;;
22144;SDS011;11238;48.730;11.566;2022-11-02T04:13:51;213.50;;;16.33;;
22144;SDS011;11238;48.730;11.566;2022-11-02T04:16:38;59.70;;;11.60;;
22144;SDS011;11238;48.730;11.566;2022-11-02T04:19:10;23.83;;;14.30;;
22144;SDS011;11238;48.730;11.566;2022-11-02T04:24:54;34.45;;;14.30;;
22144;SDS011;11238;48.730;11.566;2022-11-02T04:27:40;72.13;;;14.45;;
22144;SDS011;11238;48.730;11.566;2022-11-02T04:30:08;44.63;;;14.80;;
22144;SDS011;11238;48.730;11.566;2022-11-02T04:32:52;28.42;;;14.30;;
22144;SDS011;11238;48.730;11.566;2022-11-02T04:35:44;149.02;;;14.63;;
22144;SDS011;11238;48.730;11.566;2022-11-02T04:38:10;32.85;;;15.23;;
22144;SDS011;11238;48.730;11.566;2022-11-02T04:40:58;18.20;;;13.38;;
22144;SDS011;11238;48.730;11.566;2022-11-02T04:43:44;128.85;;;14.27;;
22144;SDS011;11238;48.730;11.566;2022-11-02T04:46:11;152.38;;;14.68;;
22144;SDS011;11238;48.730;11.566;2022-11-02T04:48:37;63.92;;;13.68;;
22144;SDS011;11238;48.730;11.566;2022-11-02T04:51:03;20.83;;;13.48;;
22144;SDS011;11238;48.730;11.566;2022-11-02T04:53:30;57.60;;;13.00;;
22144;SDS011;11238;48.730;11.566;2022-11-02T04:55:56;109.00;;;14.05;;
22144;SDS011;11238;48.730;11.566;2022-11-02T04:58:22;131.05;;;13.30;;
22144;SDS011;11238;48.730;11.566;2022-11-02T05:00:48;17.27;;;12.43;;
22144;SDS011;11238;48.730;11.566;2022-11-02T05:03:14;102.45;;;13.27;;
22144;SDS011;11238;48.730;11.566;2022-11-02T05:05:41;24.23;;;11.95;;
22144;SDS011;11238;48.730;11.566;2022-11-02T05:08:08;31.33;;;11.77;;
22144;SDS011;11238;48.730;11.566;2022-11-02T05:10:35;113.15;;;13.55;;
22144;SDS011;11238;48.730;11.566;2022-11-02T05:13:01;40.17;;;13.82;;
22144;SDS011;11238;48.730;11.566;2022-11-02T05:15:31;85.50;;;13.60;;
22144;SDS011;11238;48.730;11.566;2022-11-02T05:17:58;106.80;;;14.18;;
22144;SDS011;11238;48.730;11.566;2022-11-02T05:20:26;111.00;;;14.40;;
22144;SDS011;11238;48.730;11.566;2022-11-02T05:22:52;181.43;;;16.52;;
22144;SDS011;11238;48.730;11.566;2022-11-02T05:25:20;105.65;;;13.48;;
22144;SDS011;11238;48.730;11.566;2022-11-02T05:27:46;95.75;;;13.60;;
22144;SDS011;11238;48.730;11.566;2022-11-02T05:30:12;144.93;;;14.07;;
22144;SDS011;11238;48.730;11.566;2022-11-02T05:32:40;101.65;;;13.10;;
22144;SDS011;11238;48.730;11.566;2022-11-02T05:35:06;53.15;;;13.30;;
22144;SDS011;11238;48.730;11.566;2022-11-02T05:37:33;25.92;;;10.77;;
22144;SDS011;11238;48.730;11.566;2022-11-02T05:39:59;54.47;;;11.95;;
22144;SDS011;11238;48.730;11.566;2022-11-02T05:42:25;13.98;;;11.63;;
22144;SDS011;11238;48.730;11.566;2022-11-02T05:44:51;11.93;;;10.10;;
22144;SDS011;11238;48.730;11.566;2022-11-02T05:47:17;15.23;;;10.00;;
22144;SDS011;11238;48.730;11.566;2022-11-02T05:49:43;57.17;;;11.13;;
22144;SDS011;11238;48.730;11.566;2022-11-02T05:52:09;16.35;;;9.82;;
22144;SDS011;11238;48.730;11.566;2022-11-02T05:54:35;12.80;;;10.13;;
22144;SDS011;11238;48.730;11.566;2022-11-02T05:57:01;11.75;;;9.80;;
22144;SDS011;11238;48.730;11.566;2022-11-02T05:59:27;10.85;;;9.13;;
22144;SDS011;11238;48.730;11.566;2022-11-02T06:01:53;23.98;;;9.40;;
22144;SDS011;11238;48.730;11.566;2022-11-02T06:04:18;11.15;;;8.82;;
22144;SDS011;11238;48.730;11.566;2022-11-02T06:06:44;13.13;;;9.15;;
22144;SDS011;11238;48.730;11.566;2022-11-02T06:09:10;11.00;;;8.70;;
22144;SDS011;11238;48.730;11.566;2022-11-02T06:11:35;13.85;;;9.43;;
22144;SDS011;11238;48.730;11.566;2022-11-02T06:14:01;9.98;;;7.97;;
22144;SDS011;11238;48.730;11.566;2022-11-02T06:16:27;21.92;;;9.52;;
22144;SDS011;11238;48.730;11.566;2022-11-02T06:18:53;26.30;;;9.35;;
22144;SDS011;11238;48.730;11.566;2022-11-02T06:21:19;9.35;;;8.25;;
22144;SDS011;11238;48.730;11.566;2022-11-02T06:23:45;10.23;;;8.40;;
22144;SDS011;11238;48.730;11.566;2022-11-02T06:26:12;18.10;;;9.32;;
22144;SDS011;11238;48.730;11.566;2022-11-02T06:28:38;12.90;;;10.40;;
22144;SDS011;11238;48.730;11.566;2022-11-02T06:31:03;30.88;;;10.57;;
22144;SDS011;11238;48.730;11.566;2022-11-02T06:33:29;19.13;;;9.43;;
22144;SDS011;11238;48.730;11.566;2022-11-02T06:35:55;45.88;;;10.48;;
22144;SDS011;11238;48.730;11.566;2022-11-02T06:38:21;15.27;;;10.20;;
22144;SDS011;11238;48.730;11.566;2022-11-02T06:40:57;23.38;;;11.43;;
22144;SDS011;11238;48.730;11.566;2022-11-02T06:43:29;17.10;;;10.85;;
22144;SDS011;11238;48.730;11.566;2022-11-02T06:45:55;22.08;;;11.20;;
22144;SDS011;11238;48.730;11.566;2022-11-02T06:48:22;103.25;;;12.48;;
22144;SDS011;11238;48.730;11.566;2022-11-02T06:50:49;45.75;;;11.57;;
22144;SDS011;11238;48.730;11.566;2022-11-02T06:53:15;27.83;;;12.95;;
22144;SDS011;11238;48.730;11.566;2022-11-02T06:55:41;27.48;;;13.05;;
22144;SDS011;11238;48.730;11.566;2022-11-02T06:58:07;28.25;;;13.38;;
22144;SDS011;11238;48.730;11.566;2022-11-02T07:00:33;28.10;;;14.40;;
22144;SDS011;11238;48.730;11.566;2022-11-02T07:02:59;29.02;;;15.10;;
22144;SDS011;11238;48.730;11.566;2022-11-02T07:05:30;31.27;;;15.70;;
22144;SDS011;11238;48.730;11.566;2022-11-02T07:07:56;33.08;;;14.35;;
22144;SDS011;11238;48.730;11.566;2022-11-02T07:10:23;35.08;;;12.98;;
22144;SDS011;11238;48.730;11.566;2022-11-02T07:12:55;29.55;;;14.10;;
22144;SDS011;11238;48.730;11.566;2022-11-02T07:15:22;30.48;;;12.85;;
22144;SDS011;11238;48.730;11.566;2022-11-02T07:17:50;123.68;;;15.40;;
22144;SDS011;11238;48.730;11.566;2022-11-02T07:20:16;106.43;;;15.00;;
22144;SDS011;11238;48.730;11.566;2022-11-02T07:22:52;20.80;;;13.13;;
22144;SDS011;11238;48.730;11.566;2022-11-02T07:25:20;42.20;;;13.10;;
22144;SDS011;11238;48.730;11.566;2022-11-02T07:27:46;20.35;;;12.93;;
22144;SDS011;11238;48.730;11.566;2022-11-02T07:30:12;44.75;;;13.32;;
22144;SDS011;11238;48.730;11.566;2022-11-02T07:32:38;20.90;;;12.80;;
22144;SDS011;11238;48.730;11.566;2022-11-02T07:35:05;80.78;;;12.85;;
22144;SDS011;11238;48.730;11.566;2022-11-02T07:37:33;16.92;;;12.77;;
22144;SDS011;11238;48.730;11.566;2022-11-02T07:39:58;16.05;;;12.38;;
22144;SDS011;11238;48.730;11.566;2022-11-02T07:42:24;16.92;;;14.18;;
22144;SDS011;11238;48.730;11.566;2022-11-02T07:44:50;39.90;;;12.05;;
22144;SDS011;11238;48.730;11.566;2022-11-02T07:47:16;26.77;;;11.77;;
22144;SDS011;11238;48.730;11.566;2022-11-02T07:49:42;15.38;;;11.30;;
22144;SDS011;11238;48.730;11.566;2022-11-02T07:52:08;15.35;;;11.95;;
22144;SDS011;11238;48.730;11.566;2022-11-02T07:54:34;18.73;;;11.15;;
22144;SDS011;11238;48.730;11.566;2022-11-02T07:57:00;26.98;;;10.93;;
22144;SDS011;11238;48.730;11.566;2022-11-02T07:59:26;25.80;;;11.57;;
22144;SDS011;11238;48.730;11.566;2022-11-02T08:01:52;16.70;;;11.73;;
22144;SDS011;11238;48.730;11.566;2022-11-02T08:04:17;23.20;;;12.43;;
22144;SDS011;11238;48.730;11.566;2022-11-02T08:06:44;24.75;;;13.35;;
22144;SDS011;11238;48.730;11.566;2022-11-02T08:09:10;22.38;;;12.70;;
22144;SDS011;11238;48.730;11.566;2022-11-02T08:11:36;17.90;;;12.02;;
22144;SDS011;11238;48.730;11.566;2022-11-02T08:14:02;64.43;;;13.82;;
22144;SDS011;11238;48.730;11.566;2022-11-02T08:16:50;44.90;;;11.88;;
22144;SDS011;11238;48.730;11.566;2022-11-02T08:19:19;125.47;;;11.70;;
22144;SDS011;11238;48.730;11.566;2022-11-02T08:22:30;22.70;;;11.15;;
22144;SDS011;11238;48.730;11.566;2022-11-02T08:24:34;14.55;;;11.85;;
22144;SDS011;11238;48.730;11.566;2022-11-02T08:26:59;15.48;;;12.45;;
22144;SDS011;11238;48.730;11.566;2022-11-02T08:29:25;19.65;;;12.55;;
22144;SDS011;11238;48.730;11.566;2022-11-02T08:31:51;29.08;;;12.10;;
22144;SDS011;11238;48.730;11.566;2022-11-02T08:34:18;22.40;;;12.13;;
22144;SDS011;11238;48.730;11.566;2022-11-02T08:36:44;14.73;;;11.43;;
22144;SDS011;11238;48.730;11.566;2022-11-02T08:39:13;16.52;;;12.15;;
22144;SDS011;11238;48.730;11.566;2022-11-02T08:41:39;18.30;;;12.57;;
22144;SDS011;11238;48.730;11.566;2022-11-02T08:44:08;16.90;;;12.55;;
22144;SDS011;11238;48.730;11.566;2022-11-02T08:46:34;17.80;;;12.07;;
22144;SDS011;11238;48.730;11.566;2022-11-02T08:48:59;18.63;;;11.70;;
22144;SDS011;11238;48.730;11.566;2022-11-02T08:51:25;31.25;;;13.82;;
22144;SDS011;11238;48.730;11.566;2022-11-02T08:53:53;17.58;;;13.45;;
22144;SDS011;11238;48.730;11.566;2022-11-02T08:56:19;28.23;;;14.30;;
22144;SDS011;11238;48.730;11.566;2022-11-02T08:58:45;43.83;;;13.90;;
22144;SDS011;11238;48.730;11.566;2022-11-02T09:01:10;20.40;;;14.27;;
22144;SDS011;11238;48.730;11.566;2022-11-02T09:03:36;26.88;;;15.82;;
22144;SDS011;11238;48.730;11.566;2022-11-02T09:06:03;18.85;;;13.05;;
22144;SDS011;11238;48.730;11.566;2022-11-02T09:08:29;17.25;;;12.75;;
22144;SDS011;11238;48.730;11.566;2022-11-02T09:10:59;16.38;;;12.50;;
22144;SDS011;11238;48.730;11.566;2022-11-02T09:13:27;17.88;;;14.27;;
22144;SDS011;11238;48.730;11.566;2022-11-02T09:15:53;18.58;;;14.27;;
22144;SDS011;11238;48.730;11.566;2022-11-02T09:18:21;14.45;;;11.25;;
22144;SDS011;11238;48.730;11.566;2022-11-02T09:20:48;16.13;;;10.10;;
22144;SDS011;11238;48.730;11.566;2022-11-02T09:23:15;12.18;;;9.15;;
22144;SDS011;11238;48.730;11.566;2022-11-02T09:25:42;8.98;;;7.13;;
22144;SDS011;11238;48.730;11.566;2022-11-02T09:28:08;14.77;;;6.68;;
22144;SDS011;11238;48.730;11.566;2022-11-02T09:30:34;9.32;;;6.95;;
22144;SDS011;11238;48.730;11.566;2022-11-02T09:33:20;14.63;;;6.22;;
22144;SDS011;11238;48.730;11.566;2022-11-02T09:35:47;8.00;;;6.15;;
22144;SDS011;11238;48.730;11.566;2022-11-02T09:38:14;7.63;;;6.30;;
22144;SDS011;11238;48.730;11.566;2022-11-02T09:46:06;9.38;;;6.85;;
22144;SDS011;11238;48.730;11.566;2022-11-02T09:48:38;9.77;;;7.35;;
22144;SDS011;11238;48.730;11.566;2022-11-02T09:51:11;9.38;;;7.18;;
22144;SDS011;11238;48.730;11.566;2022-11-02T09:56:41;10.05;;;6.57;;
22144;SDS011;11238;48.730;11.566;2022-11-02T09:59:21;9.18;;;6.53;;
22144;SDS011;11238;48.730;11.566;2022-11-02T10:07:10;7.65;;;4.78;;
22144;SDS011;11238;48.730;11.566;2022-11-02T10:10:02;7.82;;;5.10;;
22144;SDS011;11238;48.730;11.566;2022-11-02T10:15:21;12.13;;;5.22;;
22144;SDS011;11238;48.730;11.566;2022-11-02T10:17:55;10.43;;;4.50;;
22144;SDS011;11238;48.730;11.566;2022-11-02T10:20:25;10.45;;;4.55;;
22144;SDS011;11238;48.730;11.566;2022-11-02T10:23:00;9.13;;;4.60;;
22144;SDS011;11238;48.730;11.566;2022-11-02T10:25:31;7.82;;;4.50;;
22144;SDS011;11238;48.730;11.566;2022-11-02T10:28:00;8.23;;;4.22;;
22144;SDS011;11238;48.730;11.566;2022-11-02T10:30:33;7.07;;;4.18;;
22144;SDS011;11238;48.730;11.566;2022-11-02T10:33:01;7.32;;;4.00;;
22144;SDS011;11238;48.730;11.566;2022-11-02T10:35:33;6.85;;;4.38;;
22144;SDS011;11238;48.730;11.566;2022-11-02T10:43:43;7.57;;;4.25;;
22144;SDS011;11238;48.730;11.566;2022-11-02T10:46:43;9.77;;;4.25;;
22144;SDS011;11238;48.730;11.566;2022-11-02T10:52:01;9.15;;;4.57;;
22144;SDS011;11238;48.730;11.566;2022-11-02T10:54:28;11.60;;;4.32;;
22144;SDS011;11238;48.730;11.566;2022-11-02T10:56:54;7.78;;;3.78;;
22144;SDS011;11238;48.730;11.566;2022-11-02T10:59:21;8.25;;;4.10;;
22144;SDS011;11238;48.730;11.566;2022-11-02T11:04:29;7.57;;;3.70;;
22144;SDS011;11238;48.730;11.566;2022-11-02T11:06:57;6.25;;;3.45;;
22144;SDS011;11238;48.730;11.566;2022-11-02T11:09:47;7.40;;;3.70;;
22144;SDS011;11238;48.730;11.566;2022-11-02T11:12:16;8.98;;;3.70;;
22144;SDS011;11238;48.730;11.566;2022-11-02T11:14:48;8.02;;;3.47;;
22144;SDS011;11238;48.730;11.566;2022-11-02T11:17:19;7.82;;;3.53;;
22144;SDS011;11238;48.730;11.566;2022-11-02T11:19:55;6.10;;;3.25;;
22144;SDS011;11238;48.730;11.566;2022-11-02T11:30:24;7.30;;;3.05;;
22144;SDS011;11238;48.730;11.566;2022-11-02T11:32:53;6.32;;;2.90;;
22144;SDS011;11238;48.730;11.566;2022-11-02T11:35:21;5.88;;;2.75;;
22144;SDS011;11238;48.730;11.566;2022-11-02T11:37:53;8.02;;;3.10;;
22144;SDS011;11238;48.730;11.566;2022-11-02T11:40:44;9.25;;;2.80;;
22144;SDS011;11238;48.730;11.566;2022-11-02T11:43:14;8.98;;;3.00;;
22144;SDS011;11238;48.730;11.566;2022-11-02T11:45:54;4.90;;;3.00;;
22144;SDS011;11238;48.730;11.566;2022-11-02T11:48:34;8.32;;;2.50;;
22144;SDS011;11238;48.730;11.566;2022-11-02T11:51:04;13.23;;;3.10;;
22144;SDS011;11238;48.730;11.566;2022-11-02T11:56:42;5.70;;;2.55;;
22144;SDS011;11238;48.730;11.566;2022-11-02T11:59:19;6.00;;;2.47;;
22144;SDS011;11238;48.730;11.566;2022-11-02T12:01:45;6.15;;;2.67;;
22144;SDS011;11238;48.730;11.566;2022-11-02T12:04:11;10.05;;;2.45;;
22144;SDS011;11238;48.730;11.566;2022-11-02T12:09:24;5.03;;;2.28;;
22144;SDS011;11238;48.730;11.566;2022-11-02T12:14:56;7.32;;;2.55;;
22144;SDS011;11238;48.730;11.566;2022-11-02T12:25:12;7.80;;;2.30;;
22144;SDS011;11238;48.730;11.566;2022-11-02T12:33:23;7.75;;;2.20;;
22144;SDS011;11238;48.730;11.566;2022-11-02T12:36:16;5.65;;;2.13;;
22144;SDS011;11238;48.730;11.566;2022-11-02T12:39:06;10.68;;;2.42;;
22144;SDS011;11238;48.730;11.566;2022-11-02T12:41:40;6.95;;;2.08;;
22144;SDS011;11238;48.730;11.566;2022-11-02T12:44:20;8.23;;;2.10;;
22144;SDS011;11238;48.730;11.566;2022-11-02T12:47:05;6.60;;;2.38;;
22144;SDS011;11238;48.730;11.566;2022-11-02T12:50:12;6.82;;;2.00;;
22144;SDS011;11238;48.730;11.566;2022-11-02T12:55:11;6.47;;;2.13;;
22144;SDS011;11238;48.730;11.566;2022-11-02T12:57:41;7.10;;;2.00;;
22144;SDS011;11238;48.730;11.566;2022-11-02T13:00:18;8.35;;;2.30;;
22144;SDS011;11238;48.730;11.566;2022-11-02T13:03:01;7.30;;;2.40;;
22144;SDS011;11238;48.730;11.566;2022-11-02T13:05:38;6.57;;;2.13;;
22144;SDS011;11238;48.730;11.566;2022-11-02T13:10:43;8.63;;;1.90;;
22144;SDS011;11238;48.730;11.566;2022-11-02T13:16:13;11.30;;;2.10;;
22144;SDS011;11238;48.730;11.566;2022-11-02T13:18:43;7.70;;;1.90;;
22144;SDS011;11238;48.730;11.566;2022-11-02T13:21:20;11.30;;;1.83;;
22144;SDS011;11238;48.730;11.566;2022-11-02T13:23:55;5.97;;;1.75;;
22144;SDS011;11238;48.730;11.566;2022-11-02T13:26:31;10.40;;;2.00;;
22144;SDS011;11238;48.730;11.566;2022-11-02T13:29:36;12.50;;;2.22;;
22144;SDS011;11238;48.730;11.566;2022-11-02T13:32:02;7.82;;;2.15;;
22144;SDS011;11238;48.730;11.566;2022-11-02T13:34:36;7.00;;;2.03;;
22144;SDS011;11238;48.730;11.566;2022-11-02T13:37:05;7.00;;;2.22;;
22144;SDS011;11238;48.730;11.566;2022-11-02T13:39:48;10.45;;;2.38;;
22144;SDS011;11238;48.730;11.566;2022-11-02T13:43:01;7.47;;;2.20;;
22144;SDS011;11238;48.730;11.566;2022-11-02T13:48:24;8.80;;;1.92;;
22144;SDS011;11238;48.730;11.566;2022-11-02T13:51:06;9.65;;;2.25;;
22144;SDS011;11238;48.730;11.566;2022-11-02T13:53:46;9.98;;;2.38;;
22144;SDS011;11238;48.730;11.566;2022-11-02T13:56:22;9.90;;;2.65;;
22144;SDS011;11238;48.730;11.566;2022-11-02T14:01:25;9.10;;;2.30;;
22144;SDS011;11238;48.730;11.566;2022-11-02T14:04:04;7.82;;;2.42;;
22144;SDS011;11238;48.730;11.566;2022-11-02T14:06:41;11.52;;;2.50;;
22144;SDS011;11238;48.730;11.566;2022-11-02T14:09:19;5.43;;;2.00;;
22144;SDS011;11238;48.730;11.566;2022-11-02T14:14:45;7.28;;;1.88;;
22144;SDS011;11238;48.730;11.566;2022-11-02T14:17:54;7.40;;;1.80;;
22144;SDS011;11238;48.730;11.566;2022-11-02T14:20:36;6.53;;;2.00;;
22144;SDS011;11238;48.730;11.566;2022-11-02T14:25:55;5.13;;;2.00;;
22144;SDS011;11238;48.730;11.566;2022-11-02T14:47:16;8.57;;;2.00;;
22144;SDS011;11238;48.730;11.566;2022-11-02T14:49:50;4.57;;;1.80;;
22144;SDS011;11238;48.730;11.566;2022-11-02T14:52:22;6.80;;;2.25;;
22144;SDS011;11238;48.730;11.566;2022-11-02T14:55:01;6.72;;;1.63;;
22144;SDS011;11238;48.730;11.566;2022-11-02T14:57:34;4.07;;;1.95;;
22144;SDS011;11238;48.730;11.566;2022-11-02T15:00:26;7.68;;;2.30;;
22144;SDS011;11238;48.730;11.566;2022-11-02T15:02:54;11.25;;;1.88;;
22144;SDS011;11238;48.730;11.566;2022-11-02T15:08:07;7.38;;;1.88;;
22144;SDS011;11238;48.730;11.566;2022-11-02T15:10:46;7.53;;;2.13;;
22144;SDS011;11238;48.730;11.566;2022-11-02T15:29:30;6.72;;;2.13;;
22144;SDS011;11238;48.730;11.566;2022-11-02T15:31:57;10.35;;;2.33;;
22144;SDS011;11238;48.730;11.566;2022-11-02T15:34:35;8.02;;;2.22;;
22144;SDS011;11238;48.730;11.566;2022-11-02T15:37:05;9.63;;;2.00;;
22144;SDS011;11238;48.730;11.566;2022-11-02T15:39:32;9.45;;;2.53;;
22144;SDS011;11238;48.730;11.566;2022-11-02T15:47:16;7.05;;;2.08;;
22144;SDS011;11238;48.730;11.566;2022-11-02T15:57:51;6.50;;;1.77;;
22144;SDS011;11238;48.730;11.566;2022-11-02T16:00:35;8.35;;;2.30;;
22144;SDS011;11238;48.730;11.566;2022-11-02T16:03:05;4.65;;;1.70;;
22144;SDS011;11238;48.730;11.566;2022-11-02T16:05:33;6.20;;;2.13;;
22144;SDS011;11238;48.730;11.566;2022-11-02T16:10:46;5.63;;;2.20;;
22144;SDS011;11238;48.730;11.566;2022-11-02T16:13:13;8.00;;;2.75;;
22144;SDS011;11238;48.730;11.566;2022-11-02T16:15:42;7.05;;;2.20;;
22144;SDS011;11238;48.730;11.566;2022-11-02T16:20:48;14.93;;;7.75;;
22144;SDS011;11238;48.730;11.566;2022-11-02T16:23:19;39.60;;;20.33;;
22144;SDS011;11238;48.730;11.566;2022-11-02T16:25:48;34.70;;;19.15;;
22144;SDS011;11238;48.730;11.566;2022-11-02T16:28:23;22.98;;;9.98;;
22144;SDS011;11238;48.730;11.566;2022-11-02T16:31:00;21.50;;;10.15;;
22144;SDS011;11238;48.730;11.566;2022-11-02T16:33:29;10.75;;;4.75;;
22144;SDS011;11238;48.730;11.566;2022-11-02T16:35:58;9.55;;;2.97;;
22144;SDS011;11238;48.730;11.566;2022-11-02T16:38:24;7.13;;;2.80;;
22144;SDS011;11238;48.730;11.566;2022-11-02T16:40:51;18.13;;;12.40;;
22144;SDS011;11238;48.730;11.566;2022-11-02T16:43:17;13.60;;;9.23;;
22144;SDS011;11238;48.730;11.566;2022-11-02T16:45:50;17.65;;;9.02;;
22144;SDS011;11238;48.730;11.566;2022-11-02T16:48:26;15.05;;;9.60;;
22144;SDS011;11238;48.730;11.566;2022-11-02T16:51:04;10.95;;;5.90;;
22144;SDS011;11238;48.730;11.566;2022-11-02T16:54:14;9.95;;;5.15;;
22144;SDS011;11238;48.730;11.566;2022-11-02T16:56:50;21.98;;;12.80;;
22144;SDS011;11238;48.730;11.566;2022-11-02T16:59:18;23.77;;;13.00;;
22144;SDS011;11238;48.730;11.566;2022-11-02T17:01:45;12.05;;;8.65;;
22144;SDS011;11238;48.730;11.566;2022-11-02T17:04:13;12.43;;;6.45;;
22144;SDS011;11238;48.730;11.566;2022-11-02T17:06:39;15.82;;;4.30;;
22144;SDS011;11238;48.730;11.566;2022-11-02T17:09:12;6.60;;;3.40;;
22144;SDS011;11238;48.730;11.566;2022-11-02T17:11:58;13.15;;;4.40;;
22144;SDS011;11238;48.730;11.566;2022-11-02T17:15:14;121.00;;;51.55;;
22144;SDS011;11238;48.730;11.566;2022-11-02T17:17:43;80.22;;;43.63;;
22144;SDS011;11238;48.730;11.566;2022-11-02T17:22:36;15.93;;;6.18;;
22144;SDS011;11238;48.730;11.566;2022-11-02T17:25:13;46.17;;;22.02;;
22144;SDS011;11238;48.730;11.566;2022-11-02T17:28:39;85.20;;;40.70;;
22144;SDS011;11238;48.730;11.566;2022-11-02T17:33:45;16.25;;;6.78;;
22144;SDS011;11238;48.730;11.566;2022-11-02T17:36:11;37.72;;;18.90;;
22144;SDS011;11238;48.730;11.566;2022-11-02T17:38:38;27.15;;;13.20;;